UPSVAC Airport Information Service

Kangerlussuaq Sondre Stromfjord

ICAO: BGSF Country: Greenland
Latitude: 67.0167 Longitude: -50.6833
Latest Arrival : UPSE151 (EDDK-BGSF) Latest Departure : UPSE1012 (BGSF-EDDK)


WX CaptureLIVE
Data provided by noaa.gov | Fetched at 14:21:03

METAR : BGSF 141350Z AUTO 02014KT 5000NDV -SN FEW023/// BKN027/// BKN034/// M05/M10 Q1015

TAF : BGSF 141100Z 1412/1505 02015KT 9999 SCT012 BKN025 TEMPO 1412/1424 2800 -SN BKN012 BECMG 1500/1503 SCT025 BKN090 TEMPO 1503/1505 BKN050


Runway Data for BGSF
Data provided by openaviationdata.com

Runway ID Mag Var Hdg Length Elevation Surface ILS Freq ILS Id ILS Slope
10 -38 99° 9191 ft 165 ft Asphalt 109.55 ISF 0
28 -38 279° 9191 ft 165 ft Asphalt -- -- --

Kangerlussuaq Sondre Stromfjord, Greenland
Use only for reference purposes



Not for navigational purposes.